Flight Track Log - Related Links

Times and Time Zones

All times are in EDT time to prevent confusion due to time zone crossing. See the N1444X flight status page for this flight to view local times or setup timezone preferences in your user account.

Time Position Orientation Groundspeed Altitude Reporting Facility
EDT Latitude Longitude Course Direction KTS MPH feet Rate Location/Type
Sun 03:48:25 PM 41.5972 -82.6600 111° Southeast 89 102 1,100  Level Cleveland Center
Sun 03:49:51 PM 41.5853 -82.6181 111° Southeast 86 99 2,000 600 Climbing Cleveland Center
Sun 03:50:45 PM 41.5650 -82.5953 140° Southeast 94 108 2,500 470 Climbing Cleveland Center
Sun 03:51:46 PM 41.5675 -82.5619 84° East 93 107 2,900 246 Climbing Cleveland Center
Sun 03:52:47 PM 41.5683 -82.5231 88° East 116 133 3,000  Climbing Cleveland Center
Sun 03:53:48 PM 41.5669 -82.4758 92° East 128 147 2,900  Descending Cleveland Center
Sun 03:54:43 PM 41.5656 -82.4369 93° East 123 142 3,000 52 Climbing Cleveland Center
Sun 03:55:43 PM 41.5664 -82.3897 89° East 121 139 3,000  Level Cleveland Center
Sun 03:56:44 PM 41.5669 -82.3428 89° East 121 139 3,000  Level Cleveland Center
Sun 03:57:45 PM 41.5678 -82.2956 89° East 119 137 3,000  Level Cleveland Center
Sun 03:58:46 PM 41.5683 -82.2511 89° East 121 139 3,000  Level Cleveland Center
Sun 03:59:53 PM 41.5733 -82.2042 82° East 123 142 3,000  Level Cleveland Center
Sun 04:00:47 PM 41.5781 -82.1653 81° East 123 142 3,000  Level Cleveland Center
Sun 04:01:48 PM 41.5869 -82.1211 75° East 123 142 3,000  Level Cleveland Center
Sun 04:02:54 PM 41.5981 -82.0714 73° East 126 145 3,000  Level Cleveland Center
Sun 04:03:55 PM 41.6047 -82.0244 79° East 126 145 3,000  Level Cleveland Center
Sun 04:05:02 PM 41.6117 -81.9717 80° East 126 145 3,000  Level Cleveland Center
Sun 04:06:02 PM 41.6206 -81.9275 75° East 127 146 3,000  Level Cleveland Center
Sun 04:07:03 PM 41.6253 -81.8831 82° East 124 143 3,000  Level Cleveland Center
Sun 04:08:04 PM 41.6239 -81.8331 92° East 126 145 3,000  Level Cleveland Center
Sun 04:09:10 PM 41.6222 -81.7803 92° East 125 144 3,000  Level Cleveland Center
Sun 04:10:11 PM 41.6144 -81.7358 103° East 127 146 3,000  Level Cleveland Center
Sun 04:11:12 PM 41.6086 -81.6883 99° East 126 145 3,000  Level Cleveland Center
Sun 04:12:06 PM 41.5986 -81.6467 108° East 128 147 3,000 -220 Level Cleveland Center
Sun 04:13:01 PM 41.5844 -81.6075 116° Southeast 142 163 2,600 -466 Descending Cleveland Center
Sun 04:14:02 PM 41.5681 -81.5600 115° Southeast 132 152 2,100 -496 Descending Cleveland Center
Sun 04:15:02 PM 41.5536 -81.5292 122° Southeast 83 96 1,600 -496 Descending Cleveland Center
Sun 04:16:03 PM 41.5539 -81.5017 89° East 86 99 1,100 -492 Descending Cleveland Center

Login

Don't have an account? Register now (free) for customized features, flight alerts, and more!